Time;durP1;ratioP1;P1;durP2;ratioP2;P2;SDS_P1;SDS_P2;PMS_P1;PMS_P2;Temp;Humidity;BMP_temperature;BMP_pressure;BME280_temperature;BME280_humidity;BME280_pressure;Samples;Min_cycle;Max_cycle;Signal;HPM_P1;HPM_P2
2022/02/05 00:01:07;;;;;;;1.83;0.90;;;4.90;99.90;;;;;;5048537;28;20932;-63
2022/02/05 00:03:40;;;;;;;2.27;1.00;;;4.80;99.90;;;;;;5049164;28;20525;-63
2022/02/05 00:06:11;;;;;;;1.50;0.70;;;4.70;99.90;;;;;;5049751;28;20456;-63
2022/02/05 00:08:53;;;;;;;2.80;1.23;;;4.60;99.90;;;;;;5048716;28;20452;-62
2022/02/05 00:41:28;;;;;;;2.43;1.50;;;4.30;99.90;;;;;;5061222;28;21155;-62
2022/02/05 00:43:58;;;;;;;2.37;1.10;;;4.20;99.90;;;;;;5063730;28;20505;-63
2022/02/05 00:46:27;;;;;;;3.00;1.23;;;4.20;99.90;;;;;;5064110;28;20550;-63
2022/02/05 00:48:54;;;;;;;2.67;1.20;;;4.20;99.90;;;;;;5063695;28;20469;-63
2022/02/05 00:51:26;;;;;;;2.07;1.20;;;4.20;99.90;;;;;;5063423;28;20447;-62
2022/02/05 00:54:03;;;;;;;5.80;1.70;;;4.20;99.90;;;;;;5063227;28;20536;-63
2022/02/05 00:56:49;;;;;;;3.00;1.50;;;4.10;99.90;;;;;;5062250;28;20526;-63
2022/02/05 00:59:18;;;;;;;4.50;1.60;;;4.00;99.90;;;;;;5063312;28;20451;-62
2022/02/05 01:01:45;;;;;;;2.47;1.50;;;4.00;99.90;;;;;;5063403;28;20826;-63
2022/02/05 01:04:13;;;;;;;2.23;1.60;;;3.90;99.90;;;;;;5063640;28;20569;-63
2022/02/05 01:06:40;;;;;;;2.30;1.90;;;3.90;99.90;;;;;;5064244;28;20505;-62
2022/02/05 01:09:13;;;;;;;4.97;1.80;;;3.80;99.90;;;;;;5063745;28;20479;-62
2022/02/05 01:11:40;;;;;;;2.80;1.70;;;3.70;99.90;;;;;;5062410;28;20465;-62
2022/02/05 01:14:09;;;;;;;3.20;1.60;;;3.60;99.90;;;;;;5064277;28;20481;-63
2022/02/05 01:16:48;;;;;;;4.07;1.47;;;3.50;99.90;;;;;;5063511;28;20812;-63
2022/02/05 01:19:32;;;;;;;2.57;1.80;;;3.60;99.90;;;;;;5056177;28;20476;-62
2022/02/05 01:22:01;;;;;;;3.00;1.80;;;3.50;99.90;;;;;;5042826;28;20953;-63
2022/02/05 01:24:30;;;;;;;5.60;1.17;;;3.40;99.90;;;;;;5048991;28;20555;-63
2022/02/05 01:27:02;;;;;;;2.83;1.37;;;3.40;99.90;;;;;;5048649;28;20451;-64
2022/02/05 01:29:39;;;;;;;3.43;1.70;;;3.30;99.90;;;;;;5048655;28;20463;-64
2022/02/05 01:32:13;;;;;;;3.60;1.50;;;3.30;99.90;;;;;;5048773;28;20450;-63
2022/02/05 01:34:46;;;;;;;2.87;1.47;;;3.30;99.90;;;;;;5048629;28;20592;-64
2022/02/05 01:51:08;;;;;;;3.70;1.90;;;2.70;99.90;;;;;;5048011;28;20842;-64
2022/02/05 01:53:50;;;;;;;2.33;1.20;;;2.80;99.90;;;;;;5049191;28;20460;-64
2022/02/05 01:56:33;;;;;;;3.50;1.53;;;2.80;99.90;;;;;;5049050;28;20452;-64
2022/02/05 01:59:17;;;;;;;4.83;1.90;;;2.80;99.90;;;;;;5043565;28;20582;-62
2022/02/05 02:04:51;;;;;;;4.63;1.57;;;2.70;99.90;;;;;;5049109;28;20439;-64
2022/02/05 02:13:14;;;;;;;4.03;2.10;;;2.80;99.90;;;;;;5045052;28;20428;-64
2022/02/05 02:15:47;;;;;;;3.60;1.60;;;2.80;99.90;;;;;;5047264;28;20463;-67
2022/02/05 02:18:32;;;;;;;4.90;1.43;;;2.70;99.90;;;;;;5059509;28;20491;-64
2022/02/05 02:21:10;;;;;;;3.23;1.60;;;2.60;99.90;;;;;;5061274;28;20479;-63
2022/02/05 02:23:52;;;;;;;3.13;2.30;;;2.50;99.90;;;;;;5062165;28;20486;-63
2022/02/05 02:26:28;;;;;;;3.50;1.27;;;2.50;99.90;;;;;;5062070;28;20531;-64
2022/02/05 02:29:01;;;;;;;2.83;1.60;;;2.40;99.90;;;;;;5059653;28;20455;-63
2022/02/05 02:31:33;;;;;;;7.20;1.77;;;2.30;99.90;;;;;;5062565;28;21147;-63
2022/02/05 02:34:02;;;;;;;3.03;1.50;;;2.20;99.90;;;;;;5061641;28;21188;-64
2022/02/05 02:36:34;;;;;;;3.07;1.70;;;2.20;99.90;;;;;;5062016;28;20479;-64
2022/02/05 02:39:08;;;;;;;3.37;1.70;;;2.30;99.90;;;;;;5061495;28;21154;-63
2022/02/05 02:41:43;;;;;;;5.23;2.00;;;2.30;99.90;;;;;;5060368;28;20431;-64
2022/02/05 02:44:10;;;;;;;8.60;1.80;;;2.30;99.90;;;;;;5061362;28;21035;-62
2022/02/05 02:46:36;;;;;;;2.80;1.30;;;2.30;99.90;;;;;;5062805;28;20534;-63
2022/02/05 02:49:05;;;;;;;4.27;1.87;;;2.30;99.90;;;;;;5062188;28;20459;-62
2022/02/05 02:57:15;;;;;;;4.17;1.80;;;2.40;99.90;;;;;;5062095;28;20418;-62
2022/02/05 02:59:52;;;;;;;3.63;1.77;;;2.40;99.90;;;;;;5058540;28;20435;-63
2022/02/05 03:02:22;;;;;;;3.50;1.60;;;2.30;99.90;;;;;;5062622;28;20439;-63
2022/02/05 03:04:49;;;;;;;2.60;1.50;;;2.20;99.90;;;;;;5059888;28;20532;-64
2022/02/05 03:07:17;;;;;;;6.83;1.67;;;2.20;99.90;;;;;;5061346;28;20447;-63
2022/02/05 03:09:46;;;;;;;4.90;1.90;;;2.20;99.90;;;;;;5061448;28;20466;-63
2022/02/05 03:12:13;;;;;;;4.00;1.70;;;2.10;99.90;;;;;;5062579;28;20483;-63
2022/02/05 03:14:40;;;;;;;4.63;2.03;;;2.10;99.90;;;;;;5061452;28;20459;-63
2022/02/05 03:17:16;;;;;;;2.80;1.93;;;2.10;99.90;;;;;;5062438;28;20441;-63
2022/02/05 03:19:44;;;;;;;3.77;1.60;;;2.10;99.90;;;;;;5060377;28;20480;-64
2022/02/05 03:22:11;;;;;;;6.67;1.93;;;2.10;99.90;;;;;;5062438;28;20916;-63
2022/02/05 03:24:38;;;;;;;6.20;1.90;;;2.10;99.90;;;;;;5060767;28;20458;-60
2022/02/05 03:27:08;;;;;;;5.47;2.47;;;2.00;99.90;;;;;;5061917;28;20461;-63
2022/02/05 03:29:36;;;;;;;6.07;2.13;;;2.00;99.90;;;;;;5061696;28;20447;-62
2022/02/05 03:32:03;;;;;;;5.23;2.13;;;2.00;99.90;;;;;;5062204;28;20450;-63
2022/02/05 03:34:30;;;;;;;3.77;2.20;;;2.10;99.90;;;;;;5061203;28;20451;-63
2022/02/05 03:36:57;;;;;;;3.97;2.20;;;2.10;99.90;;;;;;5062884;28;20443;-62
2022/02/05 03:39:24;;;;;;;3.60;1.73;;;2.00;99.90;;;;;;5055340;28;20577;-63
2022/02/05 03:41:51;;;;;;;4.63;2.47;;;2.00;99.90;;;;;;5046402;28;20440;-64
2022/02/05 03:44:19;;;;;;;3.70;2.07;;;2.00;99.90;;;;;;5048349;28;21013;-64
2022/02/05 03:46:48;;;;;;;3.87;2.10;;;2.00;99.90;;;;;;5048523;28;20444;-64
2022/02/05 03:49:17;;;;;;;4.63;2.43;;;1.90;99.90;;;;;;5048021;28;20546;-64
2022/02/05 03:51:44;;;;;;;5.20;3.03;;;1.90;99.90;;;;;;5048649;28;20447;-64
2022/02/05 03:54:11;;;;;;;4.70;2.80;;;1.90;99.90;;;;;;5049167;28;20468;-64
2022/02/05 03:56:38;;;;;;;6.47;2.10;;;1.90;99.90;;;;;;5052186;28;20440;-64
2022/02/05 03:59:05;;;;;;;5.90;2.70;;;2.00;99.90;;;;;;5051481;28;20482;-64
2022/02/05 04:01:33;;;;;;;4.50;2.57;;;2.00;99.90;;;;;;5051600;28;20448;-64
2022/02/05 04:04:00;;;;;;;5.80;2.43;;;2.00;99.90;;;;;;5051838;28;20463;-64
2022/02/05 04:06:26;;;;;;;4.00;2.30;;;2.10;99.90;;;;;;5052222;28;20463;-63
2022/02/05 04:08:56;;;;;;;3.33;2.00;;;2.00;99.90;;;;;;5052195;28;20957;-63
2022/02/05 04:11:34;;;;;;;2.93;2.03;;;2.00;99.90;;;;;;5051142;28;21113;-63
2022/02/05 04:16:48;;;;;;;4.67;2.37;;;2.10;99.90;;;;;;5051853;28;20419;-63
2022/02/05 04:19:15;;;;;;;4.53;2.73;;;2.20;99.90;;;;;;5050780;28;20488;-62
2022/02/05 04:21:42;;;;;;;4.43;2.43;;;2.30;99.90;;;;;;5051642;28;20436;-63
2022/02/05 04:24:10;;;;;;;6.43;2.70;;;2.40;99.90;;;;;;5051350;28;20957;-63
2022/02/05 04:26:38;;;;;;;4.60;2.60;;;2.40;99.90;;;;;;5051607;28;20440;-63
2022/02/05 04:29:08;;;;;;;3.40;2.27;;;2.50;99.90;;;;;;5051182;28;20941;-63
2022/02/05 04:31:35;;;;;;;9.83;4.83;;;2.60;99.90;;;;;;5051570;28;20448;-63
2022/02/05 04:34:04;;;;;;;3.97;2.53;;;2.80;99.90;;;;;;5051388;28;20460;-63
2022/02/05 04:36:30;;;;;;;5.70;2.63;;;2.80;99.90;;;;;;5051890;28;20443;-62
2022/02/05 04:39:01;;;;;;;6.23;2.63;;;2.90;99.90;;;;;;5051392;28;20484;-63
2022/02/05 04:41:34;;;;;;;3.70;2.50;;;2.80;99.90;;;;;;5050891;28;20448;-63
2022/02/05 04:44:14;;;;;;;5.90;2.80;;;2.80;99.90;;;;;;5051101;28;20464;-63
2022/02/05 04:47:23;;;;;;;4.30;2.23;;;2.70;99.90;;;;;;5051472;28;20513;-63
2022/02/05 04:50:15;;;;;;;4.70;2.43;;;2.60;99.90;;;;;;5050374;28;20439;-64
2022/02/05 04:55:46;;;;;;;7.03;2.57;;;2.80;99.90;;;;;;5047297;28;20414;-63
2022/02/05 04:58:32;;;;;;;5.00;2.80;;;2.90;99.90;;;;;;5049573;28;20475;-64
2022/02/05 05:01:15;;;;;;;4.60;2.60;;;3.00;99.90;;;;;;5044546;28;20454;-64
2022/02/05 05:03:58;;;;;;;6.53;2.40;;;3.00;99.90;;;;;;5050459;28;20994;-63
2022/02/05 05:09:17;;;;;;;3.87;2.33;;;3.10;99.90;;;;;;5050167;28;20531;-64
2022/02/05 05:12:16;;;;;;;9.00;2.30;;;3.20;99.90;;;;;;5050627;28;20942;-63
2022/02/05 05:20:12;;;;;;;3.13;2.27;;;3.30;99.90;;;;;;5049616;28;20423;-64
2022/02/05 05:22:40;;;;;;;6.27;3.00;;;3.30;99.90;;;;;;5050106;28;20452;-64
2022/02/05 05:25:08;;;;;;;7.13;2.50;;;3.30;99.90;;;;;;5050013;28;20996;-64
2022/02/05 05:27:35;;;;;;;4.17;2.50;;;3.30;99.90;;;;;;5050200;28;20905;-64
2022/02/05 05:30:02;;;;;;;6.40;3.20;;;3.30;99.90;;;;;;5049260;28;20444;-64
2022/02/05 05:32:29;;;;;;;3.63;2.17;;;3.30;99.90;;;;;;5050399;28;20442;-62
2022/02/05 05:34:55;;;;;;;5.43;2.27;;;3.30;99.90;;;;;;5050077;28;20547;-64
2022/02/05 05:37:22;;;;;;;2.93;2.20;;;3.30;99.90;;;;;;5050378;28;20487;-63
2022/02/05 05:39:50;;;;;;;4.03;2.00;;;3.40;99.90;;;;;;5049555;28;20992;-64
2022/02/05 05:42:22;;;;;;;5.77;2.47;;;3.40;99.90;;;;;;5050057;28;20487;-63
2022/02/05 05:45:12;;;;;;;4.10;2.20;;;3.40;99.90;;;;;;5049992;28;20475;-63
2022/02/05 05:47:50;;;;;;;3.63;2.57;;;3.30;99.90;;;;;;5049919;28;20972;-63
2022/02/05 05:52:58;;;;;;;4.47;2.23;;;3.40;99.90;;;;;;5040480;28;21097;-64
2022/02/05 05:55:27;;;;;;;6.60;2.73;;;3.40;99.90;;;;;;5049944;28;20497;-64
2022/02/05 05:57:57;;;;;;;3.80;2.40;;;3.40;99.90;;;;;;5049277;28;20786;-64
2022/02/05 06:00:24;;;;;;;4.93;2.67;;;3.40;99.90;;;;;;5049099;28;20480;-63
2022/02/05 06:02:50;;;;;;;3.80;2.00;;;3.40;99.90;;;;;;5049180;28;20440;-64
2022/02/05 06:05:17;;;;;;;5.40;2.80;;;3.40;99.90;;;;;;5049767;28;20447;-63
2022/02/05 06:07:44;;;;;;;4.03;2.33;;;3.50;99.90;;;;;;5049522;28;20457;-63
2022/02/05 06:10:11;;;;;;;5.60;2.83;;;3.50;99.90;;;;;;5048705;28;20450;-63
2022/02/05 06:12:39;;;;;;;4.73;2.40;;;3.60;99.90;;;;;;5048782;28;20531;-64
2022/02/05 06:15:08;;;;;;;3.60;2.73;;;3.60;99.90;;;;;;5049461;28;21071;-65
2022/02/05 06:17:36;;;;;;;5.13;2.20;;;3.60;99.90;;;;;;5048855;28;20444;-62
2022/02/05 06:20:03;;;;;;;5.33;3.30;;;3.60;99.90;;;;;;5048749;28;20515;-63
2022/02/05 06:22:30;;;;;;;3.43;3.10;;;3.70;99.90;;;;;;5049315;28;20447;-64
2022/02/05 06:24:57;;;;;;;4.73;2.73;;;3.70;99.90;;;;;;5049187;28;20470;-64
2022/02/05 06:27:24;;;;;;;3.57;2.40;;;3.70;99.90;;;;;;5049557;28;20494;-64
2022/02/05 06:29:52;;;;;;;5.10;2.40;;;3.80;99.90;;;;;;5048279;28;20444;-63
2022/02/05 06:32:19;;;;;;;5.60;1.80;;;3.80;99.90;;;;;;5049500;28;20498;-63
2022/02/05 06:34:46;;;;;;;7.17;2.70;;;3.90;99.90;;;;;;5048919;28;20467;-64
2022/02/05 06:37:14;;;;;;;5.20;2.50;;;3.80;99.90;;;;;;5049418;28;20527;-64
2022/02/05 06:39:41;;;;;;;4.50;2.00;;;3.80;99.90;;;;;;5048497;28;20571;-64
2022/02/05 06:42:08;;;;;;;3.90;2.30;;;3.80;99.90;;;;;;5049390;28;20475;-63
2022/02/05 06:44:35;;;;;;;6.50;2.60;;;3.80;99.90;;;;;;5048732;28;20466;-63
2022/02/05 06:47:04;;;;;;;4.20;2.00;;;3.90;99.90;;;;;;5049648;28;20448;-63
2022/02/05 06:49:31;;;;;;;4.00;2.10;;;3.90;99.90;;;;;;5048519;28;20471;-64
2022/02/05 06:51:58;;;;;;;4.73;2.40;;;3.80;99.90;;;;;;5049231;28;20534;-63
2022/02/05 06:54:25;;;;;;;10.07;2.37;;;3.90;99.90;;;;;;5048787;28;20474;-65
2022/02/05 06:56:51;;;;;;;3.53;2.20;;;3.90;99.90;;;;;;5049400;28;20471;-62
2022/02/05 06:59:18;;;;;;;6.40;2.60;;;4.00;99.90;;;;;;5048217;28;20570;-65
2022/02/05 07:01:45;;;;;;;4.27;2.20;;;4.00;99.90;;;;;;5049137;28;20440;-63
2022/02/05 07:04:13;;;;;;;7.23;2.67;;;4.00;99.90;;;;;;5049130;28;21069;-64
2022/02/05 07:06:40;;;;;;;4.20;2.50;;;4.10;99.90;;;;;;5048764;28;21102;-64
2022/02/05 07:09:07;;;;;;;5.53;2.50;;;4.10;99.90;;;;;;5048528;28;20436;-64
2022/02/05 07:11:35;;;;;;;4.20;2.23;;;4.00;99.90;;;;;;5049013;28;20451;-64
2022/02/05 07:14:04;;;;;;;5.00;2.80;;;4.10;99.90;;;;;;5048223;28;20480;-64
2022/02/05 07:16:35;;;;;;;3.97;2.53;;;4.10;99.90;;;;;;5048689;28;20692;-64
2022/02/05 07:19:15;;;;;;;4.50;2.93;;;4.10;99.90;;;;;;5048718;28;20489;-63
2022/02/05 07:21:48;;;;;;;3.87;2.10;;;4.10;99.90;;;;;;5048257;28;20848;-64
2022/02/05 07:24:25;;;;;;;4.97;2.20;;;4.10;99.90;;;;;;5048749;28;20464;-64
2022/02/05 07:29:36;;;;;;;4.80;2.43;;;4.30;99.90;;;;;;5049570;28;20477;-63
2022/02/05 07:32:04;;;;;;;4.70;2.77;;;4.30;99.90;;;;;;5053109;28;20985;-64
2022/02/05 07:34:33;;;;;;;8.77;3.63;;;4.40;99.90;;;;;;5053052;28;20519;-64
2022/02/05 07:37:03;;;;;;;3.53;2.13;;;4.40;99.90;;;;;;5053161;28;20521;-63
2022/02/05 07:39:30;;;;;;;3.40;2.53;;;4.40;99.90;;;;;;5052346;28;20904;-64
2022/02/05 07:42:00;;;;;;;6.30;2.70;;;4.60;99.90;;;;;;5053740;28;20463;-64
2022/02/05 07:44:27;;;;;;;5.20;2.23;;;4.50;99.90;;;;;;5052381;28;20981;-63
2022/02/05 07:46:54;;;;;;;4.67;2.40;;;4.50;99.90;;;;;;5052695;28;20479;-64
2022/02/05 07:49:23;;;;;;;3.93;2.20;;;4.60;99.90;;;;;;5050811;28;20930;-63
2022/02/05 07:51:50;;;;;;;7.03;2.47;;;4.60;99.90;;;;;;5052125;28;20444;-63
2022/02/05 07:54:18;;;;;;;5.13;2.00;;;4.70;99.90;;;;;;5051630;28;20469;-63
2022/02/05 07:56:47;;;;;;;6.00;2.87;;;4.70;99.90;;;;;;5049706;28;20444;-62
2022/02/05 07:59:16;;;;;;;6.30;3.20;;;4.80;99.90;;;;;;5051039;28;20479;-63
2022/02/05 08:01:43;;;;;;;5.60;3.00;;;4.90;99.90;;;;;;5052259;28;20471;-64
2022/02/05 08:04:10;;;;;;;4.37;2.50;;;5.00;99.90;;;;;;5051600;28;20459;-64
2022/02/05 08:06:38;;;;;;;5.20;2.83;;;5.10;99.90;;;;;;5052194;28;20454;-64
2022/02/05 08:09:14;;;;;;;3.97;2.43;;;5.10;99.90;;;;;;5051353;28;20448;-64
2022/02/05 08:11:46;;;;;;;6.30;2.97;;;5.20;99.90;;;;;;5051034;28;20451;-64
2022/02/05 08:14:13;;;;;;;9.93;3.10;;;5.30;99.90;;;;;;5049875;28;20456;-64
2022/02/05 08:16:51;;;;;;;6.53;2.97;;;5.30;99.90;;;;;;5048610;28;20546;-64
2022/02/05 08:19:18;;;;;;;5.50;2.87;;;5.20;99.90;;;;;;5043639;28;20484;-64
2022/02/05 08:21:45;;;;;;;6.07;3.23;;;5.20;99.90;;;;;;5048053;28;20432;-64
2022/02/05 08:24:12;;;;;;;4.90;2.57;;;5.30;99.90;;;;;;5049658;28;20463;-63
2022/02/05 08:26:39;;;;;;;6.07;2.83;;;5.30;99.90;;;;;;5049842;28;20444;-63
2022/02/05 08:29:09;;;;;;;5.87;3.00;;;5.40;99.90;;;;;;5049436;28;20447;-62
2022/02/05 08:31:36;;;;;;;4.97;2.40;;;5.60;99.90;;;;;;5050215;28;20865;-64
2022/02/05 08:34:03;;;;;;;6.10;3.20;;;5.70;99.90;;;;;;5049919;28;20506;-63
2022/02/05 08:36:39;;;;;;;9.13;3.63;;;5.80;99.90;;;;;;5051346;28;20470;-63
2022/02/05 08:39:06;;;;;;;7.27;3.23;;;6.00;99.90;;;;;;5051120;28;20476;-64
2022/02/05 08:41:33;;;;;;;6.13;2.67;;;6.20;99.90;;;;;;5051142;28;20448;-63
2022/02/05 08:44:00;;;;;;;5.53;3.13;;;6.40;99.90;;;;;;5050964;28;20562;-63
2022/02/05 08:46:28;;;;;;;5.67;3.73;;;6.70;99.90;;;;;;5051311;28;20451;-64
2022/02/05 08:48:55;;;;;;;5.43;2.50;;;6.70;99.90;;;;;;5051001;28;20985;-63
2022/02/05 08:51:22;;;;;;;5.67;2.63;;;6.80;99.90;;;;;;5050554;28;20452;-63
2022/02/05 08:53:50;;;;;;;5.67;3.20;;;6.90;99.90;;;;;;5050648;28;20500;-64
2022/02/05 08:56:17;;;;;;;4.73;2.93;;;6.80;99.90;;;;;;5051538;28;20475;-66
2022/02/05 08:58:44;;;;;;;5.13;3.00;;;6.80;99.90;;;;;;5050074;28;20484;-64
2022/02/05 09:01:15;;;;;;;3.77;2.00;;;6.70;99.90;;;;;;5049763;28;20785;-64
2022/02/05 09:03:56;;;;;;;6.30;2.50;;;6.70;99.90;;;;;;5049013;28;20456;-64
2022/02/05 09:06:27;;;;;;;4.57;1.63;;;6.80;99.90;;;;;;5051009;28;20942;-64
2022/02/05 09:09:06;;;;;;;6.83;2.50;;;6.80;99.90;;;;;;5051101;28;20998;-64
2022/02/05 09:11:38;;;;;;;4.40;2.00;;;7.20;99.90;;;;;;5050761;28;20444;-64
2022/02/05 09:14:15;;;;;;;5.80;1.87;;;7.30;99.90;;;;;;5050457;28;21142;-64
2022/02/05 09:16:44;;;;;;;2.83;1.50;;;7.30;99.90;;;;;;5045920;28;20945;-64
2022/02/05 09:19:13;;;;;;;6.53;2.23;;;7.40;99.90;;;;;;5049528;28;20491;-64
2022/02/05 09:21:40;;;;;;;7.60;2.60;;;7.30;99.90;;;;;;5050247;28;20448;-64
2022/02/05 09:24:07;;;;;;;5.57;1.93;;;7.20;99.90;;;;;;5049374;28;20470;-63
2022/02/05 09:26:37;;;;;;;3.80;1.80;;;7.30;99.90;;;;;;5049869;28;20910;-64
2022/02/05 09:29:12;;;;;;;5.80;1.83;;;7.20;99.90;;;;;;5049837;28;20898;-64
2022/02/05 09:31:40;;;;;;;3.93;2.20;;;6.90;99.90;;;;;;5049780;28;20849;-64
2022/02/05 09:34:07;;;;;;;7.30;2.67;;;6.60;99.90;;;;;;5049401;28;20522;-64
2022/02/05 09:36:39;;;;;;;5.43;2.20;;;6.50;99.90;;;;;;5049517;28;20890;-64
2022/02/05 09:39:07;;;;;;;5.87;1.70;;;6.60;99.90;;;;;;5049177;28;20452;-61
2022/02/05 09:41:34;;;;;;;7.83;2.73;;;6.90;99.90;;;;;;5049682;28;20463;-64
2022/02/05 09:44:01;;;;;;;3.13;1.80;;;7.10;99.90;;;;;;5050190;28;20499;-64
2022/02/05 09:46:28;;;;;;;6.00;1.80;;;7.10;99.90;;;;;;5048931;28;20435;-64
2022/02/05 09:48:55;;;;;;;4.80;1.93;;;7.00;99.90;;;;;;5049560;28;20969;-63
2022/02/05 09:51:28;;;;;;;10.20;3.60;;;6.90;99.90;;;;;;5048449;28;20510;-64
2022/02/05 09:53:58;;;;;;;5.90;2.13;;;6.90;99.90;;;;;;5049345;28;20484;-64
2022/02/05 09:56:26;;;;;;;5.67;1.97;;;6.80;99.90;;;;;;5049372;28;21038;-64
2022/02/05 09:58:54;;;;;;;6.33;2.20;;;6.80;99.90;;;;;;5049544;28;20448;-64
2022/02/05 10:01:24;;;;;;;8.20;2.10;;;6.80;99.90;;;;;;5048627;28;20486;-64
2022/02/05 10:03:53;;;;;;;3.50;1.60;;;6.80;99.90;;;;;;5049546;28;20741;-63
2022/02/05 10:06:24;;;;;;;5.73;2.10;;;7.10;99.90;;;;;;5049867;28;20451;-63
2022/02/05 10:08:58;;;;;;;4.17;1.63;;;7.30;99.90;;;;;;5049991;28;20444;-63
2022/02/05 10:11:29;;;;;;;5.83;1.70;;;7.20;99.90;;;;;;5048769;28;20483;-63
2022/02/05 10:13:56;;;;;;;5.10;1.93;;;7.20;99.90;;;;;;5049141;28;20981;-63
2022/02/05 10:16:31;;;;;;;5.70;1.87;;;7.10;99.90;;;;;;5049701;28;21013;-63
2022/02/05 10:18:59;;;;;;;4.80;1.50;;;7.30;99.90;;;;;;5049887;28;20451;-63
2022/02/05 10:21:28;;;;;;;5.27;1.80;;;7.50;99.90;;;;;;5050528;28;20483;-63
2022/02/05 10:23:58;;;;;;;4.83;1.73;;;7.40;99.90;;;;;;5049173;28;20550;-64
2022/02/05 10:26:36;;;;;;;3.23;1.73;;;7.60;99.90;;;;;;5049129;28;20633;-64
2022/02/05 10:29:07;;;;;;;3.60;1.50;;;8.00;99.90;;;;;;5049005;28;20458;-63
2022/02/05 10:32:02;;;;;;;4.37;1.70;;;8.40;99.90;;;;;;5049206;28;20840;-64
2022/02/05 10:34:32;;;;;;;4.13;1.23;;;8.50;99.90;;;;;;5048681;28;20468;-63
2022/02/05 10:37:12;;;;;;;3.70;1.43;;;8.50;99.90;;;;;;5049196;28;20454;-63
2022/02/05 10:43:03;;;;;;;3.83;1.87;;;8.20;99.90;;;;;;5006283;28;20579;-64
2022/02/05 10:45:44;;;;;;;5.07;1.70;;;7.90;99.90;;;;;;5046266;28;20497;-64
2022/02/05 10:48:14;;;;;;;8.40;1.47;;;7.40;99.90;;;;;;5049108;28;20901;-64
2022/02/05 10:50:41;;;;;;;3.47;1.30;;;7.40;99.90;;;;;;5048152;28;20439;-64
2022/02/05 10:53:13;;;;;;;5.17;1.33;;;7.70;99.90;;;;;;5048148;28;20526;-64
2022/02/05 10:56:01;;;;;;;3.93;1.70;;;7.80;99.90;;;;;;5048740;28;20471;-64
2022/02/05 10:58:44;;;;;;;3.57;1.50;;;7.80;99.90;;;;;;5048980;28;20456;-64
2022/02/05 11:07:00;;;;;;;2.87;1.50;;;7.90;99.90;;;;;;5019095;28;20460;-64
2022/02/05 11:09:27;;;;;;;4.13;1.37;;;8.00;99.90;;;;;;5052086;28;20536;-64
2022/02/05 11:20:16;;;;;;;3.93;1.43;;;9.50;99.90;;;;;;5052009;28;21093;-63
2022/02/05 11:22:46;;;;;;;2.67;1.20;;;9.50;99.90;;;;;;5051442;28;20519;-64
2022/02/05 11:25:14;;;;;;;6.83;1.60;;;10.00;99.90;;;;;;5053225;28;20545;-63
2022/02/05 11:27:44;;;;;;;5.30;1.70;;;10.50;99.90;;;;;;5052950;28;20810;-63
2022/02/05 11:30:34;;;;;;;7.00;1.57;;;10.90;99.90;;;;;;5051807;28;20929;-64
2022/02/05 11:33:05;;;;;;;4.37;2.00;;;11.50;99.90;;;;;;5051917;28;20502;-65
2022/02/05 11:35:44;;;;;;;3.87;1.27;;;11.40;99.90;;;;;;5052671;28;20455;-64
2022/02/05 11:38:11;;;;;;;2.47;1.30;;;11.40;99.90;;;;;;5052672;28;20941;-65
2022/02/05 11:40:49;;;;;;;3.50;1.10;;;11.60;99.90;;;;;;5051514;28;20479;-65
2022/02/05 11:43:21;;;;;;;4.10;1.20;;;11.50;99.30;;;;;;5052139;28;20498;-65
2022/02/05 11:46:09;;;;;;;4.43;1.33;;;11.10;99.90;;;;;;5052319;28;20542;-65
2022/02/05 11:48:44;;;;;;;3.50;2.00;;;10.70;99.90;;;;;;5052283;28;20945;-65
2022/02/05 11:51:14;;;;;;;3.97;1.30;;;10.20;99.90;;;;;;5051368;28;20435;-64
2022/02/05 11:54:09;;;;;;;2.13;1.10;;;10.00;99.40;;;;;;5052031;28;20878;-63
2022/02/05 11:56:48;;;;;;;2.30;1.20;;;9.60;99.90;;;;;;5052311;28;20454;-64
2022/02/05 11:59:17;;;;;;;2.17;1.10;;;9.20;99.90;;;;;;5051396;28;20436;-63
2022/02/05 12:01:45;;;;;;;2.73;1.00;;;9.10;99.90;;;;;;5052388;28;21047;-63
2022/02/05 12:04:15;;;;;;;8.07;1.83;;;8.90;99.90;;;;;;5051473;28;20506;-62
2022/02/05 12:06:48;;;;;;;3.10;1.10;;;8.90;99.90;;;;;;5051920;28;20458;-63
2022/02/05 12:09:34;;;;;;;3.30;0.90;;;9.10;99.90;;;;;;5051295;28;20444;-64
2022/02/05 12:12:36;;;;;;;3.80;1.20;;;9.30;99.90;;;;;;5051894;28;20444;-64
2022/02/05 12:15:24;;;;;;;3.07;1.37;;;9.20;99.90;;;;;;5051161;28;20494;-66
2022/02/05 12:18:10;;;;;;;4.47;1.30;;;9.40;99.90;;;;;;5052174;28;20506;-64
2022/02/05 12:21:02;;;;;;;3.57;1.10;;;9.30;99.90;;;;;;5050654;28;20491;-64
2022/02/05 12:24:36;;;;;;;2.33;1.00;;;9.20;99.90;;;;;;5051028;28;20514;-65
2022/02/05 12:27:24;;;;;;;3.33;0.93;;;9.00;99.90;;;;;;5051702;28;20455;-65
2022/02/05 12:29:50;;;;;;;4.47;1.17;;;8.80;99.90;;;;;;5050490;28;20505;-65
2022/02/05 12:32:21;;;;;;;4.90;1.53;;;9.00;99.90;;;;;;5051774;28;20448;-70
2022/02/05 12:34:50;;;;;;;4.13;0.90;;;9.10;99.90;;;;;;5050844;28;21025;-67
2022/02/05 12:37:17;;;;;;;3.60;1.10;;;9.10;99.90;;;;;;5051295;28;20455;-65
2022/02/05 12:39:44;;;;;;;2.90;1.10;;;9.30;99.90;;;;;;5049030;28;20444;-68
2022/02/05 12:42:14;;;;;;;7.03;1.20;;;9.50;99.90;;;;;;5050753;28;21108;-65
2022/02/05 12:44:44;;;;;;;3.83;0.93;;;9.20;99.90;;;;;;5047771;28;20451;-65
2022/02/05 12:47:18;;;;;;;9.73;1.47;;;8.90;99.90;;;;;;5051316;28;20447;-65
2022/02/05 12:49:53;;;;;;;3.97;1.13;;;8.70;99.90;;;;;;5048013;28;20453;-65
2022/02/05 12:52:25;;;;;;;3.23;0.97;;;8.70;99.90;;;;;;5051338;28;20439;-67
2022/02/05 12:54:57;;;;;;;3.03;1.20;;;8.70;99.90;;;;;;5051154;28;20456;-64
2022/02/05 12:57:25;;;;;;;2.27;1.40;;;8.80;99.90;;;;;;5046429;28;20448;-68
2022/02/05 12:59:52;;;;;;;3.57;1.30;;;9.00;99.90;;;;;;5044161;28;20983;-67
2022/02/05 13:02:21;;;;;;;3.97;1.13;;;9.10;99.90;;;;;;5045781;28;20538;-66
2022/02/05 13:04:51;;;;;;;3.63;1.50;;;9.20;99.90;;;;;;5043319;28;20475;-61
2022/02/05 13:07:21;;;;;;;5.40;1.27;;;8.90;99.90;;;;;;5043982;28;20506;-63
2022/02/05 13:09:50;;;;;;;3.03;0.80;;;8.90;99.90;;;;;;5042530;28;20451;-64
2022/02/05 13:12:20;;;;;;;3.57;1.20;;;8.90;99.90;;;;;;5049364;28;20440;-63
2022/02/05 13:14:53;;;;;;;3.30;1.00;;;8.60;99.90;;;;;;5047481;28;20467;-63
2022/02/05 13:17:45;;;;;;;3.93;1.20;;;8.60;99.90;;;;;;5046472;28;20472;-63
2022/02/05 13:25:51;;;;;;;4.00;1.20;;;8.40;99.90;;;;;;5046482;28;20575;-63
2022/02/05 13:28:37;;;;;;;3.33;1.50;;;8.40;99.90;;;;;;5043924;28;20455;-62
2022/02/05 13:34:03;;;;;;;3.70;1.27;;;8.50;99.90;;;;;;5045428;28;20455;-68
2022/02/05 13:36:44;;;;;;;2.53;1.20;;;8.70;99.90;;;;;;5033771;28;20444;-65
2022/02/05 13:39:24;;;;;;;3.20;0.90;;;8.80;99.90;;;;;;5047699;28;20566;-63
2022/02/05 13:41:57;;;;;;;3.30;1.10;;;8.80;99.90;;;;;;5049124;28;20567;-62
2022/02/05 13:44:26;;;;;;;2.53;1.20;;;8.80;99.90;;;;;;5047458;28;20563;-62
2022/02/05 13:47:04;;;;;;;4.07;1.33;;;8.80;99.90;;;;;;5047281;28;20455;-63
2022/02/05 13:49:32;;;;;;;3.43;1.43;;;8.70;99.90;;;;;;5048456;28;20462;-63
2022/02/05 13:52:08;;;;;;;4.80;1.53;;;8.60;99.90;;;;;;5048348;28;20454;-64
2022/02/05 13:54:36;;;;;;;3.23;1.00;;;8.60;99.90;;;;;;5048954;28;20468;-64
2022/02/05 13:57:03;;;;;;;4.30;1.10;;;8.50;99.90;;;;;;5049227;28;20515;-64
2022/02/05 13:59:32;;;;;;;5.90;1.00;;;8.40;99.90;;;;;;5048149;28;20440;-64
2022/02/05 14:02:12;;;;;;;2.50;1.27;;;8.40;99.90;;;;;;5046931;28;20501;-61
2022/02/05 14:04:39;;;;;;;5.17;1.17;;;8.50;99.90;;;;;;5047877;28;20568;-65
2022/02/05 14:07:07;;;;;;;3.10;1.07;;;8.60;99.90;;;;;;5049373;28;20552;-65
2022/02/05 14:09:35;;;;;;;4.53;2.40;;;8.60;99.90;;;;;;5048377;28;20444;-65
2022/02/05 14:12:15;;;;;;;6.37;1.40;;;8.60;99.90;;;;;;5049123;28;20454;-63
2022/02/05 14:14:42;;;;;;;3.33;1.03;;;8.60;99.90;;;;;;5048699;28;20459;-63
2022/02/05 14:17:17;;;;;;;4.03;1.10;;;8.50;99.90;;;;;;5048715;28;20494;-67
2022/02/05 14:19:44;;;;;;;2.47;1.10;;;8.50;99.90;;;;;;5047943;28;20442;-66
2022/02/05 14:22:21;;;;;;;2.90;1.10;;;8.40;99.90;;;;;;5048860;28;20511;-65
2022/02/05 14:25:06;;;;;;;3.70;1.20;;;8.50;99.90;;;;;;5048135;28;20468;-70
2022/02/05 14:27:34;;;;;;;3.83;1.20;;;8.40;99.90;;;;;;5048725;28;20926;-70
2022/02/05 14:30:10;;;;;;;4.00;1.10;;;8.40;99.90;;;;;;5047828;28;20871;-69
2022/02/05 14:32:45;;;;;;;5.80;1.47;;;8.40;99.90;;;;;;5048474;28;20471;-71
2022/02/05 14:35:28;;;;;;;3.50;1.50;;;8.40;99.90;;;;;;5049107;28;20467;-70
2022/02/05 14:40:44;;;;;;;5.83;1.77;;;8.50;99.90;;;;;;5048274;28;20798;-70
2022/02/05 14:43:11;;;;;;;4.00;1.70;;;8.50;99.90;;;;;;5048563;28;20471;-70
2022/02/05 14:45:39;;;;;;;3.70;1.77;;;8.50;99.90;;;;;;5039408;28;20456;-71
2022/02/05 14:48:06;;;;;;;7.67;1.87;;;8.60;99.90;;;;;;5046658;28;20523;-70
2022/02/05 14:50:33;;;;;;;4.67;1.57;;;8.50;99.90;;;;;;5047974;28;20469;-71
2022/02/05 14:53:01;;;;;;;3.00;1.50;;;8.50;99.90;;;;;;5048323;28;20448;-71
2022/02/05 14:55:29;;;;;;;4.40;1.40;;;8.50;99.90;;;;;;5048668;28;20452;-74
2022/02/05 14:57:55;;;;;;;4.83;1.40;;;8.60;99.90;;;;;;5048810;28;20436;-70
2022/02/05 15:00:23;;;;;;;3.80;1.30;;;8.60;99.90;;;;;;5048412;28;20475;-68
2022/02/05 15:02:50;;;;;;;2.40;1.30;;;8.60;99.90;;;;;;5048255;28;20480;-67
2022/02/05 15:05:18;;;;;;;2.87;1.00;;;8.60;99.90;;;;;;5048177;28;20533;-66
2022/02/05 15:07:45;;;;;;;3.27;1.10;;;8.60;99.90;;;;;;5048732;28;20448;-65